createdAt,value
2023-01-18T00:01:41.554Z,2.04
2023-01-18T00:04:19.404Z,2.03
2023-01-18T00:06:51.103Z,2.06
2023-01-18T00:09:25.918Z,2.10
2023-01-18T00:11:57.565Z,2.05
2023-01-18T00:17:30.299Z,1.99
2023-01-18T00:20:01.933Z,1.99
2023-01-18T00:22:33.558Z,1.98
2023-01-18T00:25:07.094Z,2.03
2023-01-18T00:27:44.220Z,2.02
2023-01-18T00:30:23.702Z,2.06
2023-01-18T00:32:58.889Z,1.96
2023-01-18T00:35:32.114Z,1.95
2023-01-18T00:38:03.819Z,1.91
2023-01-18T00:40:35.502Z,1.93
2023-01-18T00:43:31.751Z,1.99
2023-01-18T00:46:03.924Z,2.01
2023-01-18T00:48:36.421Z,1.97
2023-01-18T00:51:10.526Z,1.97
2023-01-18T00:53:46.047Z,1.92
2023-01-18T00:56:21.788Z,1.91
2023-01-18T00:58:53.463Z,1.93
2023-01-18T01:01:25.243Z,1.97
2023-01-18T01:04:15.935Z,1.99
2023-01-18T01:06:47.827Z,1.99
2023-01-18T01:09:22.998Z,2.03
2023-01-18T01:12:17.044Z,2.11
2023-01-18T01:15:10.586Z,2.01
2023-01-18T01:18:00.914Z,1.97
2023-01-18T01:20:57.475Z,1.95
2023-01-18T01:23:49.514Z,1.85
2023-01-18T01:26:21.381Z,1.88
2023-01-18T01:28:55.871Z,1.88
2023-01-18T01:31:30.604Z,1.89
2023-01-18T01:34:02.158Z,1.90
2023-01-18T01:36:36.806Z,1.82
2023-01-18T01:39:11.009Z,1.82
2023-01-18T01:41:42.682Z,1.86
2023-01-18T01:44:20.079Z,1.90
2023-01-18T01:46:57.596Z,1.99
2023-01-18T01:49:36.842Z,1.94
2023-01-18T01:52:12.035Z,1.90
2023-01-18T01:55:02.405Z,1.84
2023-01-18T01:58:18.017Z,1.83
2023-01-18T02:00:50.283Z,1.83
2023-01-18T02:03:34.125Z,1.83
2023-01-18T02:06:36.349Z,1.83
2023-01-18T02:09:16.862Z,1.85
2023-01-18T02:11:51.975Z,1.92
2023-01-18T02:14:27.216Z,1.80
2023-01-18T02:17:12.248Z,1.77
2023-01-18T02:20:24.266Z,1.77
2023-01-18T02:23:11.175Z,1.77
2023-01-18T02:25:50.192Z,1.79
2023-01-18T02:28:40.110Z,1.81
2023-01-18T02:31:43.066Z,1.80
2023-01-18T02:34:27.322Z,1.74
2023-01-18T02:37:03.235Z,1.73
2023-01-18T02:40:04.414Z,1.70
2023-01-18T02:42:57.908Z,1.70
2023-01-18T02:46:02.693Z,1.68
2023-01-18T02:48:40.468Z,1.73
2023-01-18T02:51:13.074Z,1.75
2023-01-18T02:53:46.536Z,1.82
2023-01-18T02:56:37.326Z,1.83
2023-01-18T02:59:11.984Z,1.84
2023-01-18T03:02:00.732Z,1.84
2023-01-18T03:04:58.478Z,1.86
2023-01-18T03:07:52.680Z,1.91
2023-01-18T03:10:36.836Z,1.96
2023-01-18T03:13:16.410Z,1.99
2023-01-18T03:16:23.262Z,2.02
2023-01-18T03:19:36.942Z,2.00
2023-01-18T03:22:10.330Z,1.86
2023-01-18T03:24:45.350Z,1.84
2023-01-18T03:27:42.844Z,1.88
2023-01-18T03:30:33.530Z,1.84
2023-01-18T03:33:27.155Z,1.86
2023-01-18T03:36:00.216Z,1.86
2023-01-18T03:38:33.973Z,1.87
2023-01-18T03:41:09.843Z,1.80
2023-01-18T03:43:43.657Z,1.81
2023-01-18T03:46:18.325Z,1.82
2023-01-18T03:48:50.102Z,1.76
2023-01-18T03:51:33.126Z,1.79
2023-01-18T03:54:15.524Z,1.95
2023-01-18T03:56:57.941Z,1.83
2023-01-18T03:59:42.101Z,1.74
2023-01-18T04:02:16.924Z,1.73
2023-01-18T04:04:48.459Z,1.76
2023-01-18T04:07:38.378Z,1.74
2023-01-18T04:10:12.267Z,1.71
2023-01-18T04:12:43.997Z,1.72
2023-01-18T04:15:17.362Z,1.72
2023-01-18T04:17:53.227Z,1.74
2023-01-18T04:20:24.944Z,1.74
2023-01-18T04:22:56.993Z,1.80
2023-01-18T04:25:29.150Z,1.82
2023-01-18T04:28:03.681Z,1.82
2023-01-18T04:30:35.384Z,1.84
2023-01-18T04:33:07.080Z,1.88
2023-01-18T04:35:42.654Z,1.95
2023-01-18T04:38:14.787Z,2.02
2023-01-18T04:40:46.718Z,2.11
2023-01-18T04:43:18.543Z,2.02
2023-01-18T04:45:55.413Z,2.08
2023-01-18T04:48:28.346Z,2.14
2023-01-18T04:51:00.268Z,2.12
2023-01-18T04:53:35.367Z,2.14
2023-01-18T04:56:07.707Z,2.09
2023-01-18T04:58:39.438Z,2.15
2023-01-18T05:01:14.635Z,2.23
2023-01-18T05:03:46.399Z,2.33
2023-01-18T05:06:19.981Z,2.43
2023-01-18T05:09:10.147Z,2.42
2023-01-18T05:11:42.930Z,2.50
2023-01-18T05:14:14.766Z,2.57
2023-01-18T05:16:46.440Z,2.66
2023-01-18T05:19:18.104Z,2.74
2023-01-18T05:21:51.045Z,2.75
2023-01-18T05:24:24.297Z,2.60
2023-01-18T05:26:58.309Z,2.56
2023-01-18T05:29:30.123Z,2.62
2023-01-18T05:32:01.776Z,2.68
2023-01-18T05:34:34.538Z,2.76
2023-01-18T05:37:08.382Z,2.79
2023-01-18T05:39:40.184Z,2.79
2023-01-18T05:42:14.446Z,2.70
2023-01-18T05:44:49.369Z,2.68
2023-01-18T05:47:21.042Z,2.72
2023-01-18T05:49:52.750Z,2.78
2023-01-18T05:52:24.375Z,2.84
2023-01-18T05:54:58.899Z,2.91
2023-01-18T05:57:30.592Z,2.95
2023-01-18T06:00:03.512Z,2.97
2023-01-18T06:02:45.730Z,2.99
2023-01-18T06:05:17.439Z,2.99
2023-01-18T06:07:49.411Z,3.02
2023-01-18T06:10:21.272Z,3.05
2023-01-18T06:12:56.303Z,3.07
2023-01-18T06:15:28.192Z,3.09
2023-01-18T06:18:05.156Z,3.11
2023-01-18T06:20:36.858Z,3.13
2023-01-18T06:23:08.577Z,3.15
2023-01-18T06:25:40.306Z,3.11
2023-01-18T06:28:12.347Z,3.07
2023-01-18T06:30:46.412Z,3.02
2023-01-18T06:33:18.090Z,3.00
2023-01-18T06:35:49.787Z,3.04
2023-01-18T06:38:24.192Z,3.08
2023-01-18T06:40:56.226Z,3.05
2023-01-18T06:43:28.006Z,3.04
2023-01-18T06:46:04.812Z,3.08
2023-01-18T06:48:36.507Z,3.08
2023-01-18T06:51:08.379Z,3.05
2023-01-18T06:53:40.121Z,3.02
2023-01-18T06:56:13.020Z,3.08
2023-01-18T06:58:47.029Z,3.09
2023-01-18T07:01:18.816Z,3.08
2023-01-18T07:03:50.686Z,3.11
2023-01-18T07:06:25.616Z,3.15
2023-01-18T07:09:00.182Z,3.15
2023-01-18T07:11:31.903Z,3.13
2023-01-18T07:14:03.693Z,3.16
2023-01-18T07:16:37.836Z,3.11
2023-01-18T07:19:09.896Z,3.14
2023-01-18T07:21:41.713Z,3.15
2023-01-18T07:24:13.347Z,3.19
2023-01-18T07:26:47.730Z,3.21
2023-01-18T07:29:19.877Z,3.24
2023-01-18T07:31:51.949Z,3.26
2023-01-18T07:34:23.843Z,3.26
2023-01-18T07:36:55.694Z,3.26
2023-01-18T07:39:27.370Z,3.27
2023-01-18T07:42:00.065Z,3.27
2023-01-18T07:44:35.739Z,3.34
2023-01-18T07:47:07.953Z,3.37
2023-01-18T07:49:41.724Z,3.42
2023-01-18T07:52:13.446Z,3.46
2023-01-18T07:54:45.649Z,3.50
2023-01-18T07:57:17.376Z,3.53
2023-01-18T07:59:52.690Z,3.52
2023-01-18T08:02:24.297Z,3.40
2023-01-18T08:04:59.033Z,3.30
2023-01-18T08:07:36.880Z,3.29
2023-01-18T08:10:12.589Z,3.30
2023-01-18T08:15:46.102Z,3.17
2023-01-18T08:18:18.102Z,3.19
2023-01-18T08:20:54.333Z,3.19
2023-01-18T08:23:26.963Z,3.18
2023-01-18T08:26:03.848Z,3.19
2023-01-18T08:28:36.968Z,3.25
2023-01-18T08:31:12.557Z,3.30
2023-01-18T08:33:47.665Z,3.37
2023-01-18T08:36:26.478Z,3.43
2023-01-18T08:39:09.252Z,3.45
2023-01-18T08:41:44.161Z,3.46
2023-01-18T08:44:15.695Z,3.42
2023-01-18T08:46:47.446Z,3.38
2023-01-18T08:49:22.388Z,3.35
2023-01-18T08:51:54.096Z,3.37
2023-01-18T08:54:28.912Z,3.40
2023-01-18T08:57:02.204Z,3.45
2023-01-18T08:59:38.012Z,3.53
2023-01-18T09:02:14.702Z,3.56
2023-01-18T09:04:49.813Z,3.62
2023-01-18T09:07:21.481Z,3.62
2023-01-18T09:09:58.086Z,3.67
2023-01-18T09:12:29.728Z,3.71
2023-01-18T09:15:01.835Z,3.78
2023-01-18T09:17:34.077Z,3.80
2023-01-18T09:20:10.742Z,3.71
2023-01-18T09:22:42.910Z,3.60
2023-01-18T09:25:14.787Z,3.52
2023-01-18T09:27:48.930Z,3.48
2023-01-18T09:30:20.671Z,3.56
2023-01-18T09:32:52.421Z,3.63
2023-01-18T09:35:27.452Z,3.62
2023-01-18T09:37:59.451Z,3.67
2023-01-18T09:40:43.175Z,3.72
2023-01-18T09:43:28.287Z,3.75
2023-01-18T09:46:00.007Z,3.72
2023-01-18T09:48:39.586Z,3.59
2023-01-18T09:51:22.839Z,3.58
2023-01-18T09:54:11.573Z,3.56
2023-01-18T09:57:01.520Z,3.59
2023-01-18T09:59:43.352Z,3.55
2023-01-18T10:02:29.373Z,3.44
2023-01-18T10:05:17.826Z,3.47
2023-01-18T10:08:07.964Z,3.58
2023-01-18T10:10:52.610Z,3.80
2023-01-18T10:13:50.871Z,4.28
2023-01-18T10:16:22.813Z,4.65
2023-01-18T10:18:57.279Z,4.72
2023-01-18T10:21:47.455Z,4.82
2023-01-18T10:24:53.026Z,4.82
2023-01-18T10:27:58.357Z,4.92
2023-01-18T10:30:41.020Z,4.99
2023-01-18T10:33:25.415Z,4.92
2023-01-18T10:36:26.755Z,4.99
2023-01-18T10:39:01.910Z,5.44
2023-01-18T10:41:40.749Z,6.07
2023-01-18T10:44:12.376Z,6.22
2023-01-18T10:46:45.654Z,6.32
2023-01-18T10:49:48.702Z,6.39
2023-01-18T10:52:49.759Z,6.68
2023-01-18T10:55:21.575Z,6.72
2023-01-18T10:57:54.860Z,6.70
2023-01-18T11:00:35.023Z,6.57
2023-01-18T11:03:15.387Z,6.53
2023-01-18T11:05:47.143Z,6.56
2023-01-18T11:08:22.658Z,6.51
2023-01-18T11:11:00.300Z,6.38
2023-01-18T11:13:42.403Z,6.26
2023-01-18T11:16:23.850Z,6.05
2023-01-18T11:19:01.466Z,5.93
2023-01-18T11:21:54.165Z,5.50
2023-01-18T11:24:31.406Z,5.21
2023-01-18T11:27:11.247Z,5.16
2023-01-18T11:29:45.479Z,5.17
2023-01-18T11:32:24.050Z,5.14
2023-01-18T11:34:58.757Z,5.11
2023-01-18T11:37:30.601Z,5.07
2023-01-18T11:40:23.194Z,5.04
2023-01-18T11:43:18.524Z,4.78
2023-01-18T11:45:59.652Z,4.73
2023-01-18T11:49:18.832Z,4.77
2023-01-18T11:52:01.864Z,4.92
2023-01-18T11:55:04.362Z,4.73
2023-01-18T11:57:37.114Z,4.71
2023-01-18T12:00:14.616Z,4.81
2023-01-18T12:03:02.468Z,4.87
2023-01-18T12:05:46.032Z,4.92
2023-01-18T12:08:32.291Z,4.90
2023-01-18T12:11:24.020Z,4.93
2023-01-18T12:14:13.823Z,4.89
2023-01-18T12:17:01.727Z,4.95
2023-01-18T12:19:53.951Z,4.90
2023-01-18T12:22:43.553Z,4.86
2023-01-18T12:26:06.859Z,4.86
2023-01-18T12:29:04.749Z,4.92
2023-01-18T12:31:50.595Z,4.86
2023-01-18T12:34:51.186Z,4.76
2023-01-18T12:37:50.716Z,4.76
2023-01-18T12:40:22.523Z,4.83
2023-01-18T12:43:15.910Z,4.79
2023-01-18T12:46:00.727Z,4.79
2023-01-18T12:48:46.860Z,4.74
2023-01-18T12:51:22.851Z,4.79
2023-01-18T12:54:39.591Z,4.80
2023-01-18T12:57:13.294Z,4.84
2023-01-18T13:00:15.594Z,4.84
2023-01-18T13:02:54.631Z,4.95
2023-01-18T13:05:43.168Z,5.00
2023-01-18T13:08:40.248Z,5.12
2023-01-18T13:11:22.076Z,5.23
2023-01-18T13:14:39.706Z,5.30
2023-01-18T13:17:11.447Z,5.24
2023-01-18T13:20:00.451Z,5.23
2023-01-18T13:22:57.996Z,5.16
2023-01-18T13:25:55.392Z,5.14
2023-01-18T13:28:30.086Z,5.11
2023-01-18T13:31:05.421Z,5.05
2023-01-18T13:33:40.801Z,5.07
2023-01-18T13:36:19.112Z,5.09
2023-01-18T13:39:06.911Z,5.08
2023-01-18T13:41:38.576Z,5.04
2023-01-18T13:44:44.435Z,4.94
2023-01-18T13:47:45.805Z,4.88
2023-01-18T13:50:36.307Z,4.93
2023-01-18T13:53:22.603Z,4.97
2023-01-18T13:56:00.286Z,5.01
2023-01-18T13:58:38.528Z,5.10
2023-01-18T14:01:24.404Z,5.05
2023-01-18T14:04:21.140Z,5.06
2023-01-18T14:06:56.512Z,5.08
2023-01-18T14:09:55.210Z,5.07
2023-01-18T14:12:47.502Z,5.11
2023-01-18T14:15:44.150Z,5.14
2023-01-18T14:18:31.524Z,5.06
2023-01-18T14:21:38.716Z,5.10
2023-01-18T14:24:33.634Z,5.08
2023-01-18T14:27:10.100Z,5.06
2023-01-18T14:29:47.783Z,5.10
2023-01-18T14:32:26.187Z,5.06
2023-01-18T14:35:00.147Z,4.98
2023-01-18T14:37:34.343Z,4.97
2023-01-18T14:40:27.518Z,4.95
2023-01-18T14:43:11.801Z,4.92
2023-01-18T14:46:29.787Z,4.87
2023-01-18T14:49:03.310Z,4.85
2023-01-18T14:51:35.089Z,4.84
2023-01-18T14:54:07.000Z,4.89
2023-01-18T14:56:45.212Z,4.89
2023-01-18T14:59:19.640Z,4.86
2023-01-18T15:02:00.283Z,4.77
2023-01-18T15:04:39.092Z,4.71
2023-01-18T15:07:18.147Z,4.77
2023-01-18T15:09:50.677Z,4.74
2023-01-18T15:12:29.025Z,4.64
2023-01-18T15:15:20.991Z,4.54
2023-01-18T15:18:02.528Z,4.55
2023-01-18T15:20:34.312Z,4.58
2023-01-18T15:23:06.815Z,4.59
2023-01-18T15:25:38.640Z,4.61
2023-01-18T15:28:22.948Z,4.60
2023-01-18T15:30:57.523Z,4.57
2023-01-18T15:33:32.019Z,4.52
2023-01-18T15:36:09.633Z,4.51
2023-01-18T15:38:41.660Z,4.53
2023-01-18T15:41:14.988Z,4.57
2023-01-18T15:43:50.759Z,4.61
2023-01-18T15:46:22.512Z,4.64
2023-01-18T15:48:57.876Z,4.60
2023-01-18T15:51:48.060Z,4.65
2023-01-18T15:54:29.934Z,4.65
2023-01-18T15:57:19.248Z,4.63
2023-01-18T15:59:51.024Z,4.61
2023-01-18T16:02:23.599Z,4.64
2023-01-18T16:05:13.711Z,4.66
2023-01-18T16:07:45.520Z,4.68
2023-01-18T16:10:18.210Z,4.65
2023-01-18T16:12:49.855Z,4.60
2023-01-18T16:15:27.427Z,4.62
2023-01-18T16:18:05.218Z,4.65
2023-01-18T16:20:37.076Z,4.59
2023-01-18T16:23:15.958Z,4.60
2023-01-18T16:25:54.423Z,4.62
2023-01-18T16:28:26.475Z,4.58
2023-01-18T16:30:59.810Z,4.58
2023-01-18T16:33:31.508Z,4.57
2023-01-18T16:36:16.432Z,4.62
2023-01-18T16:38:48.118Z,4.67
2023-01-18T16:41:19.804Z,4.63
2023-01-18T16:43:52.092Z,4.64
2023-01-18T16:46:23.796Z,4.66
2023-01-18T16:48:55.465Z,4.70
2023-01-18T16:51:28.727Z,4.58
2023-01-18T16:54:01.117Z,4.50
2023-01-18T16:56:33.062Z,4.45
2023-01-18T16:59:18.371Z,4.46
2023-01-18T17:01:51.556Z,4.50
2023-01-18T17:04:26.645Z,4.58
2023-01-18T17:06:58.290Z,4.57
2023-01-18T17:09:32.489Z,4.56
2023-01-18T17:12:06.649Z,4.55
2023-01-18T17:14:38.363Z,4.56
2023-01-18T17:17:11.366Z,4.58
2023-01-18T17:19:43.068Z,4.53
2023-01-18T17:22:14.825Z,4.50
2023-01-18T17:24:46.619Z,4.48
2023-01-18T17:27:18.274Z,4.50
2023-01-18T17:29:49.989Z,4.53
2023-01-18T17:32:21.680Z,4.54
2023-01-18T17:34:53.386Z,4.54
2023-01-18T17:37:25.094Z,4.55
2023-01-18T17:40:12.119Z,4.58
2023-01-18T17:42:46.240Z,4.57
2023-01-18T17:45:18.120Z,4.54
2023-01-18T17:47:53.763Z,4.51
2023-01-18T17:50:26.134Z,4.43
2023-01-18T17:52:58.088Z,4.40
2023-01-18T17:55:34.628Z,4.43
2023-01-18T17:58:06.944Z,4.39
2023-01-18T18:00:38.692Z,4.40
2023-01-18T18:03:10.475Z,4.40
2023-01-18T18:05:42.278Z,4.41
2023-01-18T18:08:13.984Z,4.41
2023-01-18T18:10:45.728Z,4.43
2023-01-18T18:13:19.286Z,4.44
2023-01-18T18:15:52.159Z,4.49
2023-01-18T18:18:25.351Z,4.50
2023-01-18T18:20:59.087Z,4.48
2023-01-18T18:23:35.064Z,4.53
2023-01-18T18:26:06.850Z,4.56
2023-01-18T18:28:38.563Z,4.53
2023-01-18T18:31:16.429Z,4.51
2023-01-18T18:33:48.375Z,4.50
2023-01-18T18:36:21.295Z,4.45
2023-01-18T18:38:55.683Z,4.48
2023-01-18T18:41:27.608Z,4.47
2023-01-18T18:43:59.355Z,4.46
2023-01-18T18:46:31.175Z,4.36
2023-01-18T18:49:02.955Z,4.30
2023-01-18T18:51:37.462Z,4.16
2023-01-18T18:54:13.139Z,4.05
2023-01-18T18:56:44.897Z,4.00
2023-01-18T18:59:16.599Z,4.01
2023-01-18T19:01:51.728Z,3.86
2023-01-18T19:04:23.688Z,3.80
2023-01-18T19:06:55.409Z,3.74
2023-01-18T19:09:27.110Z,3.77
2023-01-18T19:11:58.820Z,3.76
2023-01-18T19:14:30.710Z,3.68
2023-01-18T19:17:02.840Z,3.69
2023-01-18T19:19:34.551Z,3.71
2023-01-18T19:22:09.085Z,3.66
2023-01-18T19:24:41.577Z,3.63
2023-01-18T19:27:26.681Z,3.56
2023-01-18T19:29:58.322Z,3.53
2023-01-18T19:32:30.030Z,3.50
2023-01-18T19:35:01.774Z,3.49
2023-01-18T19:37:33.912Z,3.51
2023-01-18T19:40:07.533Z,3.55
2023-01-18T19:42:40.400Z,3.54
2023-01-18T19:45:19.656Z,3.53
2023-01-18T19:48:00.622Z,3.61
2023-01-18T19:50:32.352Z,3.62
2023-01-18T19:53:04.119Z,3.65
2023-01-18T19:55:38.340Z,3.59
2023-01-18T19:58:10.059Z,3.54
2023-01-18T20:00:41.816Z,3.52
2023-01-18T20:03:13.910Z,3.53
2023-01-18T20:05:45.684Z,3.53
2023-01-18T20:08:17.350Z,3.55
2023-01-18T20:10:49.172Z,3.55
2023-01-18T20:13:20.835Z,3.55
2023-01-18T20:15:54.640Z,3.59
2023-01-18T20:18:30.035Z,3.58
2023-01-18T20:21:10.703Z,3.56
2023-01-18T20:23:44.137Z,3.54
2023-01-18T20:26:34.825Z,3.50
2023-01-18T20:29:07.624Z,3.49
2023-01-18T20:31:39.979Z,3.50
2023-01-18T20:34:11.663Z,3.47
2023-01-18T20:36:45.973Z,3.38
2023-01-18T20:39:18.812Z,3.33
2023-01-18T20:41:53.219Z,3.25
2023-01-18T20:44:25.199Z,3.29
2023-01-18T20:46:57.405Z,3.23
2023-01-18T20:49:37.756Z,3.20
2023-01-18T20:52:10.243Z,3.15
2023-01-18T20:54:41.919Z,3.19
2023-01-18T20:57:13.880Z,3.20
2023-01-18T20:59:45.532Z,3.19
2023-01-18T21:02:17.349Z,3.17
2023-01-18T21:04:49.130Z,3.14
2023-01-18T21:07:20.939Z,3.07
2023-01-18T21:09:52.636Z,3.07
2023-01-18T21:12:24.402Z,3.08
2023-01-18T21:14:56.154Z,3.09
2023-01-18T21:17:27.852Z,3.07
2023-01-18T21:19:59.549Z,3.07
2023-01-18T21:22:31.273Z,3.10
2023-01-18T21:25:03.389Z,3.10
2023-01-18T21:27:36.676Z,3.13
2023-01-18T21:30:09.567Z,3.12
2023-01-18T21:32:41.527Z,3.09
2023-01-18T21:35:13.982Z,3.11
2023-01-18T21:37:45.787Z,3.18
2023-01-18T21:40:17.703Z,3.28
2023-01-18T21:43:18.429Z,3.34
2023-01-18T21:45:56.994Z,3.42
2023-01-18T21:48:30.487Z,3.44
2023-01-18T21:51:22.964Z,3.48
2023-01-18T21:54:14.734Z,3.51
2023-01-18T21:56:47.349Z,3.52
2023-01-18T21:59:19.029Z,3.53
2023-01-18T22:01:50.810Z,3.51
2023-01-18T22:04:41.226Z,3.47
2023-01-18T22:07:16.255Z,3.37
2023-01-18T22:10:03.073Z,3.32
2023-01-18T22:12:38.992Z,3.36
2023-01-18T22:15:11.806Z,3.36
2023-01-18T22:17:43.668Z,3.32
2023-01-18T22:20:15.836Z,3.28
2023-01-18T22:22:49.544Z,3.29
2023-01-18T22:25:21.482Z,3.28
2023-01-18T22:27:53.301Z,3.24
2023-01-18T22:30:28.692Z,3.22
2023-01-18T22:33:00.742Z,3.30
2023-01-18T22:35:32.422Z,3.36
2023-01-18T22:38:04.124Z,3.32
2023-01-18T22:40:35.831Z,3.29
2023-01-18T22:43:11.430Z,3.23
2023-01-18T22:45:43.102Z,3.11
2023-01-18T22:48:14.785Z,3.09
2023-01-18T22:50:55.026Z,3.05
2023-01-18T22:53:28.731Z,2.97
2023-01-18T22:56:03.613Z,2.91
2023-01-18T22:58:35.594Z,2.73
2023-01-18T23:01:28.479Z,2.71
2023-01-18T23:04:03.675Z,2.64
2023-01-18T23:06:48.098Z,2.63
2023-01-18T23:09:20.399Z,2.67
2023-01-18T23:11:52.351Z,2.68
2023-01-18T23:14:42.571Z,2.72
2023-01-18T23:17:32.957Z,2.70
2023-01-18T23:20:10.889Z,2.67
2023-01-18T23:22:42.644Z,2.68
2023-01-18T23:25:14.340Z,2.70
2023-01-18T23:27:46.051Z,2.71
2023-01-18T23:30:19.019Z,2.73
2023-01-18T23:32:50.994Z,2.77
2023-01-18T23:35:22.867Z,2.77
2023-01-18T23:37:54.511Z,2.75
2023-01-18T23:40:44.397Z,2.78
2023-01-18T23:43:34.771Z,2.86
2023-01-18T23:46:24.923Z,2.87
2023-01-18T23:49:15.323Z,2.80
2023-01-18T23:52:05.494Z,2.73
2023-01-18T23:54:37.255Z,2.66
2023-01-18T23:57:08.937Z,2.71
2023-01-18T23:59:41.911Z,2.66
